sensor_id;sensor_type;location;lat;lon;timestamp;pressure;altitude;pressure_sealevel;temperature;humidity
22283;BME280;11310;51.528;21.204;2022-11-30T00:01:41;101125.91;;;1.59;100.00
22283;BME280;11310;51.528;21.204;2022-11-30T00:04:11;101107.78;;;1.57;100.00
22283;BME280;11310;51.528;21.204;2022-11-30T00:06:42;101112.97;;;1.59;100.00
22283;BME280;11310;51.528;21.204;2022-11-30T00:09:10;101111.25;;;1.62;100.00
22283;BME280;11310;51.528;21.204;2022-11-30T00:11:40;101113.88;;;1.64;100.00
22283;BME280;11310;51.528;21.204;2022-11-30T00:14:08;101121.63;;;1.64;100.00
22283;BME280;11310;51.528;21.204;2022-11-30T00:16:37;101119.03;;;1.64;100.00
22283;BME280;11310;51.528;21.204;2022-11-30T00:19:05;101121.63;;;1.64;100.00
22283;BME280;11310;51.528;21.204;2022-11-30T00:21:34;101125.06;;;1.61;100.00
22283;BME280;11310;51.528;21.204;2022-11-30T00:24:05;101126.72;;;1.58;100.00
22283;BME280;11310;51.528;21.204;2022-11-30T00:26:34;101124.16;;;1.56;100.00
22283;BME280;11310;51.528;21.204;2022-11-30T00:29:03;101124.13;;;1.55;100.00
22283;BME280;11310;51.528;21.204;2022-11-30T00:31:32;101124.13;;;1.55;100.00
22283;BME280;11310;51.528;21.204;2022-11-30T00:34:00;101128.44;;;1.56;100.00
22283;BME280;11310;51.528;21.204;2022-11-30T00:36:29;101126.75;;;1.56;100.00
22283;BME280;11310;51.528;21.204;2022-11-30T00:38:59;101125.88;;;1.56;100.00
22283;BME280;11310;51.528;21.204;2022-11-30T00:41:29;101124.13;;;1.55;100.00
22283;BME280;11310;51.528;21.204;2022-11-30T00:43:58;101117.25;;;1.54;100.00
22283;BME280;11310;51.528;21.204;2022-11-30T00:46:27;101118.97;;;1.58;100.00
22283;BME280;11310;51.528;21.204;2022-11-30T00:48:56;101113.81;;;1.58;100.00
22283;BME280;11310;51.528;21.204;2022-11-30T00:51:24;101118.16;;;1.59;100.00
22283;BME280;11310;51.528;21.204;2022-11-30T00:53:53;101122.44;;;1.60;100.00
22283;BME280;11310;51.528;21.204;2022-11-30T00:56:23;101129.34;;;1.61;100.00
22283;BME280;11310;51.528;21.204;2022-11-30T00:58:53;101132.78;;;1.60;100.00
22283;BME280;11310;51.528;21.204;2022-11-30T01:01:22;101128.47;;;1.57;100.00
22283;BME280;11310;51.528;21.204;2022-11-30T01:03:51;101126.69;;;1.50;100.00
22283;BME280;11310;51.528;21.204;2022-11-30T01:06:20;101123.22;;;1.47;100.00
22283;BME280;11310;51.528;21.204;2022-11-30T01:08:48;101121.44;;;1.43;100.00
22283;BME280;11310;51.528;21.204;2022-11-30T01:11:20;101124.00;;;1.41;100.00
22283;BME280;11310;51.528;21.204;2022-11-30T01:13:50;101119.69;;;1.40;100.00
22283;BME280;11310;51.528;21.204;2022-11-30T01:16:23;101130.91;;;1.41;100.00
22283;BME280;11310;51.528;21.204;2022-11-30T01:18:52;101134.38;;;1.40;100.00
22283;BME280;11310;51.528;21.204;2022-11-30T01:21:23;101135.25;;;1.46;100.00
22283;BME280;11310;51.528;21.204;2022-11-30T01:23:52;101138.72;;;1.48;100.00
22283;BME280;11310;51.528;21.204;2022-11-30T01:26:21;101142.19;;;1.52;100.00
22283;BME280;11310;51.528;21.204;2022-11-30T01:28:52;101137.00;;;1.50;100.00
22283;BME280;11310;51.528;21.204;2022-11-30T01:31:23;101137.06;;;1.53;100.00
22283;BME280;11310;51.528;21.204;2022-11-30T01:33:54;101131.00;;;1.53;100.00
22283;BME280;11310;51.528;21.204;2022-11-30T01:36:24;101137.88;;;1.49;100.00
22283;BME280;11310;51.528;21.204;2022-11-30T01:38:55;101132.69;;;1.45;100.00
22283;BME280;11310;51.528;21.204;2022-11-30T01:41:25;101143.00;;;1.46;100.00
22283;BME280;11310;51.528;21.204;2022-11-30T01:43:56;101142.16;;;1.44;100.00
22283;BME280;11310;51.528;21.204;2022-11-30T01:46:29;101139.53;;;1.43;100.00
22283;BME280;11310;51.528;21.204;2022-11-30T01:49:04;101136.09;;;1.44;100.00
22283;BME280;11310;51.528;21.204;2022-11-30T01:51:39;101137.78;;;1.39;100.00
22283;BME280;11310;51.528;21.204;2022-11-30T01:54:12;101142.09;;;1.38;100.00
22283;BME280;11310;51.528;21.204;2022-11-30T01:56:45;101141.25;;;1.39;100.00
22283;BME280;11310;51.528;21.204;2022-11-30T01:59:16;101140.41;;;1.42;100.00
22283;BME280;11310;51.528;21.204;2022-11-30T02:01:47;101147.31;;;1.44;100.00
22283;BME280;11310;51.528;21.204;2022-11-30T02:04:19;101140.41;;;1.43;100.00
22283;BME280;11310;51.528;21.204;2022-11-30T02:06:49;101149.03;;;1.42;100.00
22283;BME280;11310;51.528;21.204;2022-11-30T02:09:19;101146.44;;;1.41;100.00
22283;BME280;11310;51.528;21.204;2022-11-30T02:11:49;101144.72;;;1.40;100.00
22283;BME280;11310;51.528;21.204;2022-11-30T02:14:29;101141.22;;;1.38;100.00
22283;BME280;11310;51.528;21.204;2022-11-30T02:17:09;101139.47;;;1.35;100.00
22283;BME280;11310;51.528;21.204;2022-11-30T02:23:00;101144.66;;;1.37;100.00
22283;BME280;11310;51.528;21.204;2022-11-30T02:25:39;101150.69;;;1.37;100.00
22283;BME280;11310;51.528;21.204;2022-11-30T02:28:49;101152.41;;;1.37;100.00
22283;BME280;11310;51.528;21.204;2022-11-30T02:31:25;101158.44;;;1.36;100.00
22283;BME280;11310;51.528;21.204;2022-11-30T02:33:56;101159.31;;;1.36;100.00
22283;BME280;11310;51.528;21.204;2022-11-30T02:36:26;101160.19;;;1.37;100.00
22283;BME280;11310;51.528;21.204;2022-11-30T02:38:56;101155.00;;;1.37;100.00
22283;BME280;11310;51.528;21.204;2022-11-30T02:41:33;101155.00;;;1.37;100.00
22283;BME280;11310;51.528;21.204;2022-11-30T02:44:08;101151.53;;;1.35;100.00
22283;BME280;11310;51.528;21.204;2022-11-30T02:46:52;101158.44;;;1.36;100.00
22283;BME280;11310;51.528;21.204;2022-11-30T02:49:30;101160.19;;;1.37;100.00
22283;BME280;11310;51.528;21.204;2022-11-30T02:52:01;101155.00;;;1.37;100.00
22283;BME280;11310;51.528;21.204;2022-11-30T02:54:31;101160.19;;;1.38;100.00
22283;BME280;11310;51.528;21.204;2022-11-30T02:57:00;101166.22;;;1.40;100.00
22283;BME280;11310;51.528;21.204;2022-11-30T02:59:31;101166.25;;;1.42;100.00
22283;BME280;11310;51.528;21.204;2022-11-30T03:02:00;101167.13;;;1.41;100.00
22283;BME280;11310;51.528;21.204;2022-11-30T03:04:29;101164.47;;;1.36;100.00
22283;BME280;11310;51.528;21.204;2022-11-30T03:06:58;101160.19;;;1.37;100.00
22283;BME280;11310;51.528;21.204;2022-11-30T03:09:27;101171.38;;;1.37;100.00
22283;BME280;11310;51.528;21.204;2022-11-30T03:11:55;101169.63;;;1.36;100.00
22283;BME280;11310;51.528;21.204;2022-11-30T03:14:24;101177.41;;;1.36;100.00
22283;BME280;11310;51.528;21.204;2022-11-30T03:16:54;101179.97;;;1.36;100.00
22283;BME280;11310;51.528;21.204;2022-11-30T03:19:23;101173.13;;;1.38;100.00
22283;BME280;11310;51.528;21.204;2022-11-30T03:21:52;101174.84;;;1.39;100.00
22283;BME280;11310;51.528;21.204;2022-11-30T03:24:21;101172.25;;;1.39;100.00
22283;BME280;11310;51.528;21.204;2022-11-30T03:26:50;101171.38;;;1.39;100.00
22283;BME280;11310;51.528;21.204;2022-11-30T03:29:19;101168.78;;;1.37;100.00
22283;BME280;11310;51.528;21.204;2022-11-30T03:31:48;101182.59;;;1.38;100.00
22283;BME280;11310;51.528;21.204;2022-11-30T03:34:18;101181.69;;;1.37;100.00
22283;BME280;11310;51.528;21.204;2022-11-30T03:36:47;101179.13;;;1.36;100.00
22283;BME280;11310;51.528;21.204;2022-11-30T03:39:16;101183.44;;;1.37;100.00
22283;BME280;11310;51.528;21.204;2022-11-30T03:41:44;101178.28;;;1.37;100.00
22283;BME280;11310;51.528;21.204;2022-11-30T03:44:13;101188.63;;;1.38;100.00
22283;BME280;11310;51.528;21.204;2022-11-30T03:46:41;101189.47;;;1.39;100.00
22283;BME280;11310;51.528;21.204;2022-11-30T03:49:10;101187.75;;;1.38;100.00
22283;BME280;11310;51.528;21.204;2022-11-30T03:51:40;101186.00;;;1.35;100.00
22283;BME280;11310;51.528;21.204;2022-11-30T03:54:10;101186.81;;;1.31;100.00
22283;BME280;11310;51.528;21.204;2022-11-30T03:56:39;101184.25;;;1.33;100.00
22283;BME280;11310;51.528;21.204;2022-11-30T03:59:08;101186.84;;;1.33;100.00
22283;BME280;11310;51.528;21.204;2022-11-30T04:01:36;101189.47;;;1.36;100.00
22283;BME280;11310;51.528;21.204;2022-11-30T04:04:07;101192.97;;;1.41;100.00
22283;BME280;11310;51.528;21.204;2022-11-30T04:06:36;101188.66;;;1.43;100.00
22283;BME280;11310;51.528;21.204;2022-11-30T04:09:06;101185.22;;;1.42;100.00
22283;BME280;11310;51.528;21.204;2022-11-30T04:11:35;101190.38;;;1.44;100.00
22283;BME280;11310;51.528;21.204;2022-11-30T04:14:04;101191.25;;;1.44;100.00
22283;BME280;11310;51.528;21.204;2022-11-30T04:16:33;101180.91;;;1.43;100.00
22283;BME280;11310;51.528;21.204;2022-11-30T04:19:01;101180.03;;;1.44;100.00
22283;BME280;11310;51.528;21.204;2022-11-30T04:21:30;101182.63;;;1.42;100.00
22283;BME280;11310;51.528;21.204;2022-11-30T04:23:59;101181.72;;;1.39;100.00
22283;BME280;11310;51.528;21.204;2022-11-30T04:26:29;101186.03;;;1.38;100.00
22283;BME280;11310;51.528;21.204;2022-11-30T04:28:58;101179.97;;;1.35;100.00
22283;BME280;11310;51.528;21.204;2022-11-30T04:31:30;101183.38;;;1.32;100.00
22283;BME280;11310;51.528;21.204;2022-11-30T04:33:59;101184.25;;;1.33;100.00
22283;BME280;11310;51.528;21.204;2022-11-30T04:36:28;101188.56;;;1.31;100.00
22283;BME280;11310;51.528;21.204;2022-11-30T04:38:56;101189.47;;;1.36;100.00
22283;BME280;11310;51.528;21.204;2022-11-30T04:41:25;101193.78;;;1.37;100.00
22283;BME280;11310;51.528;21.204;2022-11-30T04:43:55;101192.91;;;1.36;100.00
22283;BME280;11310;51.528;21.204;2022-11-30T04:46:24;101188.56;;;1.34;100.00
22283;BME280;11310;51.528;21.204;2022-11-30T04:48:53;101197.22;;;1.36;100.00
22283;BME280;11310;51.528;21.204;2022-11-30T04:51:21;101193.81;;;1.38;100.00
22283;BME280;11310;51.528;21.204;2022-11-30T04:53:50;101193.81;;;1.38;100.00
22283;BME280;11310;51.528;21.204;2022-11-30T04:56:19;101199.81;;;1.39;100.00
22283;BME280;11310;51.528;21.204;2022-11-30T04:58:48;101193.78;;;1.37;100.00
22283;BME280;11310;51.528;21.204;2022-11-30T05:01:18;101189.44;;;1.33;100.00
22283;BME280;11310;51.528;21.204;2022-11-30T05:03:46;101192.00;;;1.33;100.00
22283;BME280;11310;51.528;21.204;2022-11-30T05:06:15;101192.00;;;1.33;100.00
22283;BME280;11310;51.528;21.204;2022-11-30T05:08:44;101195.47;;;1.32;100.00
22283;BME280;11310;51.528;21.204;2022-11-30T05:11:12;101200.63;;;1.35;100.00
22283;BME280;11310;51.528;21.204;2022-11-30T05:13:41;101198.09;;;1.38;100.00
22283;BME280;11310;51.528;21.204;2022-11-30T05:16:11;101198.94;;;1.37;100.00
22283;BME280;11310;51.528;21.204;2022-11-30T05:18:41;101205.84;;;1.38;100.00
22283;BME280;11310;51.528;21.204;2022-11-30T05:21:10;101208.44;;;1.38;100.00
22283;BME280;11310;51.528;21.204;2022-11-30T05:23:40;101201.50;;;1.35;100.00
22283;BME280;11310;51.528;21.204;2022-11-30T05:26:09;101202.38;;;1.34;100.00
22283;BME280;11310;51.528;21.204;2022-11-30T05:28:38;101195.47;;;1.32;100.00
22283;BME280;11310;51.528;21.204;2022-11-30T05:31:07;101200.63;;;1.35;100.00
22283;BME280;11310;51.528;21.204;2022-11-30T05:33:35;101204.13;;;1.38;100.00
22283;BME280;11310;51.528;21.204;2022-11-30T05:36:07;101206.72;;;1.37;100.00
22283;BME280;11310;51.528;21.204;2022-11-30T05:38:37;101214.47;;;1.37;100.00
22283;BME280;11310;51.528;21.204;2022-11-30T05:41:06;101207.53;;;1.37;100.00
22283;BME280;11310;51.528;21.204;2022-11-30T05:43:35;101218.75;;;1.38;100.00
22283;BME280;11310;51.528;21.204;2022-11-30T05:46:06;101215.28;;;1.33;100.00
22283;BME280;11310;51.528;21.204;2022-11-30T05:48:35;101222.19;;;1.35;100.00
22283;BME280;11310;51.528;21.204;2022-11-30T05:51:07;101225.66;;;1.36;100.00
22283;BME280;11310;51.528;21.204;2022-11-30T05:53:37;101227.38;;;1.35;100.00
22283;BME280;11310;51.528;21.204;2022-11-30T05:56:09;101226.53;;;1.39;100.00
22283;BME280;11310;51.528;21.204;2022-11-30T05:58:39;101227.41;;;1.40;100.00
22283;BME280;11310;51.528;21.204;2022-11-30T06:01:16;101218.75;;;1.38;100.00
22283;BME280;11310;51.528;21.204;2022-11-30T06:03:45;101230.00;;;1.38;100.00
22283;BME280;11310;51.528;21.204;2022-11-30T06:06:17;101232.56;;;1.37;100.00
22283;BME280;11310;51.528;21.204;2022-11-30T06:08:46;101238.56;;;1.37;100.00
22283;BME280;11310;51.528;21.204;2022-11-30T06:11:16;101235.16;;;1.38;100.00
22283;BME280;11310;51.528;21.204;2022-11-30T06:13:45;101243.75;;;1.37;100.00
22283;BME280;11310;51.528;21.204;2022-11-30T06:16:15;101248.91;;;1.36;100.00
22283;BME280;11310;51.528;21.204;2022-11-30T06:18:45;101248.03;;;1.35;100.00
22283;BME280;11310;51.528;21.204;2022-11-30T06:21:13;101246.34;;;1.36;100.00
22283;BME280;11310;51.528;21.204;2022-11-30T06:23:51;101243.72;;;1.34;100.00
22283;BME280;11310;51.528;21.204;2022-11-30T06:26:21;101249.75;;;1.35;100.00
22283;BME280;11310;51.528;21.204;2022-11-30T06:28:50;101249.69;;;1.29;100.00
22283;BME280;11310;51.528;21.204;2022-11-30T06:31:18;101253.19;;;1.31;100.00
22283;BME280;11310;51.528;21.204;2022-11-30T06:33:48;101252.34;;;1.33;100.00
22283;BME280;11310;51.528;21.204;2022-11-30T06:36:20;101249.75;;;1.33;100.00
22283;BME280;11310;51.528;21.204;2022-11-30T06:38:51;101254.06;;;1.34;100.00
22283;BME280;11310;51.528;21.204;2022-11-30T06:41:20;101258.44;;;1.40;100.00
22283;BME280;11310;51.528;21.204;2022-11-30T06:43:49;101261.91;;;1.42;100.00
22283;BME280;11310;51.528;21.204;2022-11-30T06:46:18;101261.91;;;1.43;100.00
22283;BME280;11310;51.528;21.204;2022-11-30T06:48:48;101260.19;;;1.42;100.00
22283;BME280;11310;51.528;21.204;2022-11-30T06:51:18;101255.84;;;1.41;100.00
22283;BME280;11310;51.528;21.204;2022-11-30T06:53:51;101258.44;;;1.43;100.00
22283;BME280;11310;51.528;21.204;2022-11-30T06:56:20;101257.59;;;1.41;100.00
22283;BME280;11310;51.528;21.204;2022-11-30T06:58:52;101266.19;;;1.40;100.00
22283;BME280;11310;51.528;21.204;2022-11-30T07:01:21;101268.75;;;1.38;100.00
22283;BME280;11310;51.528;21.204;2022-11-30T07:03:51;101273.94;;;1.40;100.00
22283;BME280;11310;51.528;21.204;2022-11-30T07:06:20;101269.66;;;1.43;100.00
22283;BME280;11310;51.528;21.204;2022-11-30T07:08:51;101264.50;;;1.46;100.00
22283;BME280;11310;51.528;21.204;2022-11-30T07:11:20;101273.19;;;1.50;100.00
22283;BME280;11310;51.528;21.204;2022-11-30T07:13:49;101277.53;;;1.54;100.00
22283;BME280;11310;51.528;21.204;2022-11-30T07:16:18;101267.22;;;1.57;100.00
22283;BME280;11310;51.528;21.204;2022-11-30T07:18:48;101263.72;;;1.52;100.00
22283;BME280;11310;51.528;21.204;2022-11-30T07:21:17;101267.16;;;1.51;100.00
22283;BME280;11310;51.528;21.204;2022-11-30T07:23:45;101275.81;;;1.54;100.00
22283;BME280;11310;51.528;21.204;2022-11-30T07:26:33;101275.00;;;1.60;100.00
22283;BME280;11310;51.528;21.204;2022-11-30T07:29:02;101276.81;;;1.65;100.00
22283;BME280;11310;51.528;21.204;2022-11-30T07:31:32;101273.38;;;1.68;100.00
22283;BME280;11310;51.528;21.204;2022-11-30T07:34:04;101268.22;;;1.71;100.00
22283;BME280;11310;51.528;21.204;2022-11-30T07:36:34;101269.13;;;1.76;100.00
22283;BME280;11310;51.528;21.204;2022-11-30T07:39:04;101275.19;;;1.78;100.00
22283;BME280;11310;51.528;21.204;2022-11-30T07:41:34;101274.31;;;1.79;100.00
22283;BME280;11310;51.528;21.204;2022-11-30T07:44:03;101276.06;;;1.80;100.00
22283;BME280;11310;51.528;21.204;2022-11-30T07:46:33;101275.22;;;1.82;100.00
22283;BME280;11310;51.528;21.204;2022-11-30T07:49:02;101283.88;;;1.87;100.00
22283;BME280;11310;51.528;21.204;2022-11-30T07:51:32;101281.34;;;1.90;100.00
22283;BME280;11310;51.528;21.204;2022-11-30T07:54:01;101277.88;;;1.90;100.00
22283;BME280;11310;51.528;21.204;2022-11-30T07:56:30;101279.63;;;1.94;100.00
22283;BME280;11310;51.528;21.204;2022-11-30T07:59:01;101277.91;;;1.93;100.00
22283;BME280;11310;51.528;21.204;2022-11-30T08:01:39;101277.06;;;1.92;100.00
22283;BME280;11310;51.528;21.204;2022-11-30T08:04:11;101287.34;;;1.88;100.00
22283;BME280;11310;51.528;21.204;2022-11-30T08:06:41;101276.09;;;1.83;100.00
22283;BME280;11310;51.528;21.204;2022-11-30T08:09:11;101284.72;;;1.82;100.00
22283;BME280;11310;51.528;21.204;2022-11-30T08:11:47;101282.97;;;1.82;100.00
22283;BME280;11310;51.528;21.204;2022-11-30T08:14:18;101277.81;;;1.84;100.00
22283;BME280;11310;51.528;21.204;2022-11-30T08:16:47;101273.53;;;1.86;100.00
22283;BME280;11310;51.528;21.204;2022-11-30T08:19:16;101282.16;;;1.88;100.00
22283;BME280;11310;51.528;21.204;2022-11-30T08:21:56;101293.41;;;1.91;100.00
22283;BME280;11310;51.528;21.204;2022-11-30T08:24:25;101280.47;;;1.91;100.00
22283;BME280;11310;51.528;21.204;2022-11-30T08:26:54;101292.56;;;1.94;100.00
22283;BME280;11310;51.528;21.204;2022-11-30T08:29:27;101281.38;;;1.95;100.00
22283;BME280;11310;51.528;21.204;2022-11-30T08:31:56;101295.19;;;1.95;100.00
22283;BME280;11310;51.528;21.204;2022-11-30T08:34:25;101291.72;;;1.96;100.00
22283;BME280;11310;51.528;21.204;2022-11-30T08:36:54;101290.91;;;1.97;100.00
22283;BME280;11310;51.528;21.204;2022-11-30T08:39:23;101288.28;;;1.99;100.00
22283;BME280;11310;51.528;21.204;2022-11-30T08:41:54;101289.19;;;1.99;100.00
22283;BME280;11310;51.528;21.204;2022-11-30T08:44:24;101298.66;;;1.99;100.00
22283;BME280;11310;51.528;21.204;2022-11-30T08:46:54;101289.13;;;1.96;100.00
22283;BME280;11310;51.528;21.204;2022-11-30T08:49:23;101291.75;;;1.98;100.00
22283;BME280;11310;51.528;21.204;2022-11-30T08:51:54;101289.97;;;1.94;100.00
22283;BME280;11310;51.528;21.204;2022-11-30T08:54:43;101296.88;;;1.92;100.00
22283;BME280;11310;51.528;21.204;2022-11-30T08:57:14;101297.75;;;1.94;100.00
22283;BME280;11310;51.528;21.204;2022-11-30T08:59:44;101295.19;;;1.97;100.00
22283;BME280;11310;51.528;21.204;2022-11-30T09:02:16;101293.50;;;2.02;100.00
22283;BME280;11310;51.528;21.204;2022-11-30T09:04:47;101288.38;;;2.05;100.00
22283;BME280;11310;51.528;21.204;2022-11-30T09:07:18;101286.63;;;2.05;100.00
22283;BME280;11310;51.528;21.204;2022-11-30T09:09:47;101279.72;;;2.03;100.00
22283;BME280;11310;51.528;21.204;2022-11-30T09:12:17;101283.19;;;2.08;100.00
22283;BME280;11310;51.528;21.204;2022-11-30T09:14:46;101283.19;;;2.08;100.00
22283;BME280;11310;51.528;21.204;2022-11-30T09:17:25;101288.38;;;2.08;100.00
22283;BME280;11310;51.528;21.204;2022-11-30T09:19:54;101288.41;;;2.11;100.00
22283;BME280;11310;51.528;21.204;2022-11-30T09:22:22;101290.16;;;2.13;100.00
22283;BME280;11310;51.528;21.204;2022-11-30T09:24:51;101292.75;;;2.13;100.00
22283;BME280;11310;51.528;21.204;2022-11-30T09:27:20;101288.44;;;2.14;100.00
22283;BME280;11310;51.528;21.204;2022-11-30T09:29:50;101291.03;;;2.14;100.00
22283;BME280;11310;51.528;21.204;2022-11-30T09:32:19;101284.09;;;2.13;100.00
22283;BME280;11310;51.528;21.204;2022-11-30T09:34:49;101294.47;;;2.14;100.00
22283;BME280;11310;51.528;21.204;2022-11-30T09:37:19;101284.13;;;2.16;100.00
22283;BME280;11310;51.528;21.204;2022-11-30T09:39:48;101289.31;;;2.16;100.00
22283;BME280;11310;51.528;21.204;2022-11-30T09:42:31;101280.69;;;2.17;100.00
22283;BME280;11310;51.528;21.204;2022-11-30T09:45:11;101285.88;;;2.17;100.00
22283;BME280;11310;51.528;21.204;2022-11-30T09:48:15;101278.09;;;2.14;100.00
22283;BME280;11310;51.528;21.204;2022-11-30T09:50:48;101285.88;;;2.15;100.00
22283;BME280;11310;51.528;21.204;2022-11-30T09:53:21;101290.22;;;2.18;100.00
22283;BME280;11310;51.528;21.204;2022-11-30T09:55:57;101274.69;;;2.18;100.00
22283;BME280;11310;51.528;21.204;2022-11-30T09:58:37;101283.34;;;2.23;100.00
22283;BME280;11310;51.528;21.204;2022-11-30T10:01:18;101286.78;;;2.25;100.00
22283;BME280;11310;51.528;21.204;2022-11-30T10:03:52;101287.69;;;2.25;100.00
22283;BME280;11310;51.528;21.204;2022-11-30T10:06:27;101284.22;;;2.25;100.00
22283;BME280;11310;51.528;21.204;2022-11-30T10:09:15;101280.78;;;2.24;100.00
22283;BME280;11310;51.528;21.204;2022-11-30T10:11:55;101274.72;;;2.24;100.00
22283;BME280;11310;51.528;21.204;2022-11-30T10:14:51;101274.72;;;2.24;100.00
22283;BME280;11310;51.528;21.204;2022-11-30T10:17:34;101272.16;;;2.25;100.00
22283;BME280;11310;51.528;21.204;2022-11-30T10:23:19;101279.94;;;2.30;100.00
22283;BME280;11310;51.528;21.204;2022-11-30T10:25:57;101275.59;;;2.29;100.00
22283;BME280;11310;51.528;21.204;2022-11-30T10:28:39;101273.88;;;2.26;100.00
22283;BME280;11310;51.528;21.204;2022-11-30T10:31:19;101275.59;;;2.24;100.00
22283;BME280;11310;51.528;21.204;2022-11-30T10:33:53;101274.72;;;2.24;100.00
22283;BME280;11310;51.528;21.204;2022-11-30T10:36:35;101272.13;;;2.24;100.00
22283;BME280;11310;51.528;21.204;2022-11-30T10:39:18;101272.13;;;2.24;100.00
22283;BME280;11310;51.528;21.204;2022-11-30T10:41:55;101271.25;;;2.25;100.00
22283;BME280;11310;51.528;21.204;2022-11-30T10:44:33;101270.41;;;2.26;100.00
22283;BME280;11310;51.528;21.204;2022-11-30T10:47:16;101270.41;;;2.26;100.00
22283;BME280;11310;51.528;21.204;2022-11-30T10:49:51;101269.56;;;2.25;100.00
22283;BME280;11310;51.528;21.204;2022-11-30T10:52:22;101269.56;;;2.27;100.00
22283;BME280;11310;51.528;21.204;2022-11-30T10:54:56;101265.25;;;2.27;100.00
22283;BME280;11310;51.528;21.204;2022-11-30T10:57:32;101266.97;;;2.30;100.00
22283;BME280;11310;51.528;21.204;2022-11-30T11:00:04;101265.28;;;2.30;100.00
22283;BME280;11310;51.528;21.204;2022-11-30T11:02:38;101274.75;;;2.30;100.00
22283;BME280;11310;51.528;21.204;2022-11-30T11:05:20;101271.28;;;2.31;100.00
22283;BME280;11310;51.528;21.204;2022-11-30T11:07:52;101276.47;;;2.28;100.00
22283;BME280;11310;51.528;21.204;2022-11-30T11:10:33;101267.84;;;2.29;100.00
22283;BME280;11310;51.528;21.204;2022-11-30T11:13:03;101270.44;;;2.29;100.00
22283;BME280;11310;51.528;21.204;2022-11-30T11:15:33;101276.47;;;2.28;100.00
22283;BME280;11310;51.528;21.204;2022-11-30T11:18:21;101276.47;;;2.31;100.00
22283;BME280;11310;51.528;21.204;2022-11-30T11:21:00;101279.06;;;2.31;100.00
22283;BME280;11310;51.528;21.204;2022-11-30T11:23:35;101272.19;;;2.31;100.00
22283;BME280;11310;51.528;21.204;2022-11-30T11:26:15;101274.78;;;2.33;100.00
22283;BME280;11310;51.528;21.204;2022-11-30T11:28:47;101267.84;;;2.29;100.00
22283;BME280;11310;51.528;21.204;2022-11-30T11:31:32;101266.13;;;2.31;100.00
22283;BME280;11310;51.528;21.204;2022-11-30T11:34:04;101261.81;;;2.31;100.00
22283;BME280;11310;51.528;21.204;2022-11-30T11:36:36;101263.59;;;2.35;100.00
22283;BME280;11310;51.528;21.204;2022-11-30T11:39:23;101267.94;;;2.39;100.00
22283;BME280;11310;51.528;21.204;2022-11-30T11:41:57;101260.16;;;2.39;100.00
22283;BME280;11310;51.528;21.204;2022-11-30T11:44:26;101262.75;;;2.41;100.00
22283;BME280;11310;51.528;21.204;2022-11-30T11:46:57;101266.22;;;2.43;100.00
22283;BME280;11310;51.528;21.204;2022-11-30T11:49:31;101268.84;;;2.46;100.00
22283;BME280;11310;51.528;21.204;2022-11-30T11:52:03;101259.31;;;2.45;100.00
22283;BME280;11310;51.528;21.204;2022-11-30T11:54:35;101257.59;;;2.44;100.00
22283;BME280;11310;51.528;21.204;2022-11-30T11:57:11;101254.97;;;2.42;100.00
22283;BME280;11310;51.528;21.204;2022-11-30T11:59:48;101262.75;;;2.42;100.00
22283;BME280;11310;51.528;21.204;2022-11-30T12:02:26;101258.41;;;2.40;100.00
22283;BME280;11310;51.528;21.204;2022-11-30T12:05:02;101258.44;;;2.38;100.00
22283;BME280;11310;51.528;21.204;2022-11-30T12:07:36;101264.47;;;2.39;100.00
22283;BME280;11310;51.528;21.204;2022-11-30T12:10:24;101267.94;;;2.41;100.00
22283;BME280;11310;51.528;21.204;2022-11-30T12:13:19;101261.91;;;2.43;100.00
22283;BME280;11310;51.528;21.204;2022-11-30T12:15:58;101262.75;;;2.44;100.00
22283;BME280;11310;51.528;21.204;2022-11-30T12:18:37;101266.25;;;2.46;100.00
22283;BME280;11310;51.528;21.204;2022-11-30T12:21:13;101267.09;;;2.43;100.00
22283;BME280;11310;51.528;21.204;2022-11-30T12:23:53;101273.97;;;2.41;100.00
22283;BME280;11310;51.528;21.204;2022-11-30T12:26:33;101259.28;;;2.39;100.00
22283;BME280;11310;51.528;21.204;2022-11-30T12:29:18;101271.34;;;2.40;100.00
22283;BME280;11310;51.528;21.204;2022-11-30T12:32:13;101273.13;;;2.41;100.00
22283;BME280;11310;51.528;21.204;2022-11-30T12:34:56;101277.38;;;2.37;100.00
22283;BME280;11310;51.528;21.204;2022-11-30T12:37:41;101276.50;;;2.34;100.00
22283;BME280;11310;51.528;21.204;2022-11-30T12:40:23;101277.38;;;2.33;100.00
22283;BME280;11310;51.528;21.204;2022-11-30T12:43:02;101278.22;;;2.30;100.00
22283;BME280;11310;51.528;21.204;2022-11-30T12:45:38;101279.94;;;2.30;100.00
22283;BME280;11310;51.528;21.204;2022-11-30T12:48:18;101279.94;;;2.30;100.00
22283;BME280;11310;51.528;21.204;2022-11-30T12:50:58;101280.81;;;2.33;100.00
22283;BME280;11310;51.528;21.204;2022-11-30T12:53:35;101287.75;;;2.34;100.00
22283;BME280;11310;51.528;21.204;2022-11-30T12:56:14;101274.81;;;2.34;100.00
22283;BME280;11310;51.528;21.204;2022-11-30T12:58:51;101280.81;;;2.32;100.00
22283;BME280;11310;51.528;21.204;2022-11-30T13:01:34;101279.94;;;2.30;100.00
22283;BME280;11310;51.528;21.204;2022-11-30T13:04:08;101283.38;;;2.29;100.00
22283;BME280;11310;51.528;21.204;2022-11-30T13:06:49;101288.56;;;2.29;100.00
22283;BME280;11310;51.528;21.204;2022-11-30T13:09:24;101283.34;;;2.26;100.00
22283;BME280;11310;51.528;21.204;2022-11-30T13:11:59;101276.41;;;2.22;100.00
22283;BME280;11310;51.528;21.204;2022-11-30T13:14:33;101280.72;;;2.20;100.00